sensor_id;sensor_type;location;lat;lon;timestamp;pressure;altitude;pressure_sealevel;temperature;humidity
77737;BME280;66903;59.926;30.404;2023-04-24T00:04:53;100586.47;;;28.25;31.86
77737;BME280;66903;59.926;30.404;2023-04-24T00:09:53;100596.28;;;28.24;32.12
77737;BME280;66903;59.926;30.404;2023-04-24T00:14:54;100596.97;;;28.21;31.87
77737;BME280;66903;59.926;30.404;2023-04-24T00:19:55;100588.34;;;28.21;32.04
77737;BME280;66903;59.926;30.404;2023-04-24T00:24:58;100589.50;;;28.20;31.39
77737;BME280;66903;59.926;30.404;2023-04-24T00:29:59;100578.88;;;28.20;31.60
77737;BME280;66903;59.926;30.404;2023-04-24T00:34:59;100574.81;;;28.21;31.59
77737;BME280;66903;59.926;30.404;2023-04-24T00:40:00;100575.16;;;28.20;31.82
77737;BME280;66903;59.926;30.404;2023-04-24T00:45:02;100580.56;;;28.21;31.54
77737;BME280;66903;59.926;30.404;2023-04-24T00:50:04;100566.19;;;28.21;31.16
77737;BME280;66903;59.926;30.404;2023-04-24T00:55:06;100572.78;;;28.22;31.52
77737;BME280;66903;59.926;30.404;2023-04-24T01:00:07;100576.00;;;28.20;31.31
77737;BME280;66903;59.926;30.404;2023-04-24T01:05:12;100566.19;;;28.21;31.64
77737;BME280;66903;59.926;30.404;2023-04-24T01:10:14;100557.91;;;28.20;31.38
77737;BME280;66903;59.926;30.404;2023-04-24T01:15:15;100560.09;;;28.23;31.67
77737;BME280;66903;59.926;30.404;2023-04-24T01:20:15;100563.50;;;28.25;31.47
77737;BME280;66903;59.926;30.404;2023-04-24T01:25:17;100566.38;;;28.25;31.57
77737;BME280;66903;59.926;30.404;2023-04-24T01:30:18;100551.66;;;28.26;31.45
77737;BME280;66903;59.926;30.404;2023-04-24T01:35:19;100551.34;;;28.28;31.16
77737;BME280;66903;59.926;30.404;2023-04-24T01:40:20;100540.16;;;28.26;31.33
77737;BME280;66903;59.926;30.404;2023-04-24T01:45:20;100541.03;;;28.27;31.46
77737;BME280;66903;59.926;30.404;2023-04-24T01:50:21;100535.28;;;28.27;31.31
77737;BME280;66903;59.926;30.404;2023-04-24T01:55:21;100526.16;;;28.25;31.50
77737;BME280;66903;59.926;30.404;2023-04-24T02:00:23;100533.59;;;28.26;31.81
77737;BME280;66903;59.926;30.404;2023-04-24T02:05:25;100534.94;;;28.28;31.97
77737;BME280;66903;59.926;30.404;2023-04-24T02:10:25;100536.13;;;28.27;31.81
77737;BME280;66903;59.926;30.404;2023-04-24T02:15:26;100525.50;;;28.28;31.76
77737;BME280;66903;59.926;30.404;2023-04-24T02:20:26;100519.75;;;28.28;31.86
77737;BME280;66903;59.926;30.404;2023-04-24T02:25:27;100519.22;;;28.26;32.22
77737;BME280;66903;59.926;30.404;2023-04-24T02:30:28;100517.69;;;28.28;31.77
77737;BME280;66903;59.926;30.404;2023-04-24T02:35:28;100513.50;;;28.26;32.06
77737;BME280;66903;59.926;30.404;2023-04-24T02:40:29;100520.91;;;28.27;32.11
77737;BME280;66903;59.926;30.404;2023-04-24T02:45:30;100521.75;;;28.27;31.88
77737;BME280;66903;59.926;30.404;2023-04-24T02:50:30;100523.44;;;28.28;31.95
77737;BME280;66903;59.926;30.404;2023-04-24T02:55:32;100509.41;;;28.27;31.63
77737;BME280;66903;59.926;30.404;2023-04-24T03:00:32;100508.41;;;28.23;31.83
77737;BME280;66903;59.926;30.404;2023-04-24T03:05:33;100513.16;;;28.27;31.80
77737;BME280;66903;59.926;30.404;2023-04-24T03:10:34;100499.94;;;28.26;31.63
77737;BME280;66903;59.926;30.404;2023-04-24T03:15:35;100511.13;;;28.28;31.82
77737;BME280;66903;59.926;30.404;2023-04-24T03:20:35;100514.81;;;28.28;31.76
77737;BME280;66903;59.926;30.404;2023-04-24T03:25:37;100514.00;;;28.28;31.30
77737;BME280;66903;59.926;30.404;2023-04-24T03:30:38;100508.25;;;28.28;31.60
77737;BME280;66903;59.926;30.404;2023-04-24T03:35:38;100496.75;;;28.28;32.17
77737;BME280;66903;59.926;30.404;2023-04-24T03:40:39;100506.53;;;28.27;31.82
77737;BME280;66903;59.926;30.404;2023-04-24T03:45:39;100503.31;;;28.28;31.92
77737;BME280;66903;59.926;30.404;2023-04-24T03:50:40;100503.31;;;28.28;31.69
77737;BME280;66903;59.926;30.404;2023-04-24T03:55:41;100512.81;;;28.29;31.64
77737;BME280;66903;59.926;30.404;2023-04-24T04:00:41;100513.31;;;28.31;31.64
77737;BME280;66903;59.926;30.404;2023-04-24T04:05:42;100506.88;;;28.34;31.61
77737;BME280;66903;59.926;30.404;2023-04-24T04:10:42;100494.69;;;28.37;31.56
77737;BME280;66903;59.926;30.404;2023-04-24T04:15:43;100506.88;;;28.34;31.67
77737;BME280;66903;59.926;30.404;2023-04-24T04:20:44;100498.44;;;28.29;32.02
77737;BME280;66903;59.926;30.404;2023-04-24T04:25:44;100506.53;;;28.27;31.38
77737;BME280;66903;59.926;30.404;2023-04-24T04:30:45;100497.75;;;28.23;31.56
77737;BME280;66903;59.926;30.404;2023-04-24T04:35:47;100495.56;;;28.20;31.93
77737;BME280;66903;59.926;30.404;2023-04-24T04:40:52;100495.22;;;28.22;31.92
77737;BME280;66903;59.926;30.404;2023-04-24T04:45:52;100495.22;;;28.22;31.40
77737;BME280;66903;59.926;30.404;2023-04-24T04:50:54;100485.75;;;28.21;31.22
77737;BME280;66903;59.926;30.404;2023-04-24T04:55:55;100495.75;;;28.24;31.24
77737;BME280;66903;59.926;30.404;2023-04-24T05:00:56;100480.88;;;28.22;31.07
77737;BME280;66903;59.926;30.404;2023-04-24T05:05:57;100482.53;;;28.23;30.88
77737;BME280;66903;59.926;30.404;2023-04-24T05:10:58;100480.88;;;28.22;31.34
77737;BME280;66903;59.926;30.404;2023-04-24T05:15:59;100471.91;;;28.23;30.69
77737;BME280;66903;59.926;30.404;2023-04-24T05:20:59;100480.03;;;28.21;30.67
77737;BME280;66903;59.926;30.404;2023-04-24T05:26:00;100467.72;;;28.21;30.30
77737;BME280;66903;59.926;30.404;2023-04-24T05:31:00;100469.88;;;28.24;30.69
77737;BME280;66903;59.926;30.404;2023-04-24T05:36:01;100463.94;;;28.38;30.63
77737;BME280;66903;59.926;30.404;2023-04-24T05:41:01;100469.09;;;28.78;30.32
77737;BME280;66903;59.926;30.404;2023-04-24T05:46:02;100466.13;;;29.12;30.28
77737;BME280;66903;59.926;30.404;2023-04-24T05:51:03;100456.06;;;29.48;29.88
77737;BME280;66903;59.926;30.404;2023-04-24T05:56:03;100464.00;;;29.80;29.45
77737;BME280;66903;59.926;30.404;2023-04-24T06:01:04;100457.41;;;30.00;28.81
77737;BME280;66903;59.926;30.404;2023-04-24T06:06:06;100464.88;;;30.13;29.61
77737;BME280;66903;59.926;30.404;2023-04-24T06:11:06;100456.16;;;30.21;29.39
77737;BME280;66903;59.926;30.404;2023-04-24T06:16:07;100456.81;;;30.27;29.50
77737;BME280;66903;59.926;30.404;2023-04-24T06:21:07;100449.28;;;30.34;29.52
77737;BME280;66903;59.926;30.404;2023-04-24T06:26:08;100445.59;;;30.46;29.54
77737;BME280;66903;59.926;30.404;2023-04-24T06:31:09;100447.84;;;30.73;29.05
77737;BME280;66903;59.926;30.404;2023-04-24T06:36:09;100447.34;;;32.04;28.53
77737;BME280;66903;59.926;30.404;2023-04-24T06:41:10;100439.19;;;33.08;27.26
77737;BME280;66903;59.926;30.404;2023-04-24T06:46:11;100440.03;;;32.93;27.11
77737;BME280;66903;59.926;30.404;2023-04-24T06:51:12;100424.69;;;32.77;27.24
77737;BME280;66903;59.926;30.404;2023-04-24T06:56:12;100429.63;;;32.76;26.76
77737;BME280;66903;59.926;30.404;2023-04-24T07:01:13;100427.78;;;32.84;26.38
77737;BME280;66903;59.926;30.404;2023-04-24T07:06:13;100423.44;;;33.05;26.38
77737;BME280;66903;59.926;30.404;2023-04-24T07:11:14;100420.00;;;33.34;26.46
77737;BME280;66903;59.926;30.404;2023-04-24T07:16:15;100420.25;;;33.61;26.59
77737;BME280;66903;59.926;30.404;2023-04-24T07:21:15;100421.69;;;33.86;26.19
77737;BME280;66903;59.926;30.404;2023-04-24T07:26:16;100424.69;;;34.08;25.77
77737;BME280;66903;59.926;30.404;2023-04-24T07:31:16;100426.06;;;34.33;26.14
77737;BME280;66903;59.926;30.404;2023-04-24T07:36:17;100425.38;;;34.59;25.42
77737;BME280;66903;59.926;30.404;2023-04-24T07:41:19;100435.41;;;34.84;24.57
77737;BME280;66903;59.926;30.404;2023-04-24T07:46:20;100418.38;;;35.05;24.54
77737;BME280;66903;59.926;30.404;2023-04-24T07:51:21;100432.94;;;35.31;24.41
77737;BME280;66903;59.926;30.404;2023-04-24T07:56:22;100431.03;;;35.65;25.00
77737;BME280;66903;59.926;30.404;2023-04-24T08:01:22;100416.63;;;36.02;24.13
77737;BME280;66903;59.926;30.404;2023-04-24T08:06:23;100422.03;;;36.33;23.97
77737;BME280;66903;59.926;30.404;2023-04-24T08:11:24;100434.09;;;36.68;24.52
77737;BME280;66903;59.926;30.404;2023-04-24T08:16:25;100415.81;;;37.04;24.17
77737;BME280;66903;59.926;30.404;2023-04-24T08:21:26;100415.75;;;37.44;23.46
77737;BME280;66903;59.926;30.404;2023-04-24T08:26:27;100405.59;;;37.82;23.06
77737;BME280;66903;59.926;30.404;2023-04-24T08:31:27;100391.28;;;38.28;23.09
77737;BME280;66903;59.926;30.404;2023-04-24T08:36:28;100415.63;;;38.67;22.42
77737;BME280;66903;59.926;30.404;2023-04-24T08:41:29;100413.59;;;39.03;22.01
77737;BME280;66903;59.926;30.404;2023-04-24T08:46:30;100404.03;;;39.37;21.83
77737;BME280;66903;59.926;30.404;2023-04-24T08:51:31;100429.91;;;39.63;21.58
77737;BME280;66903;59.926;30.404;2023-04-24T08:56:33;100412.31;;;39.85;21.41
77737;BME280;66903;59.926;30.404;2023-04-24T09:01:34;100418.56;;;40.08;20.75
77737;BME280;66903;59.926;30.404;2023-04-24T09:06:37;100406.34;;;40.34;21.06
77737;BME280;66903;59.926;30.404;2023-04-24T09:11:37;100400.81;;;40.57;20.90
77737;BME280;66903;59.926;30.404;2023-04-24T09:16:40;100400.28;;;40.76;20.51
77737;BME280;66903;59.926;30.404;2023-04-24T09:21:45;100401.84;;;40.91;20.07
77737;BME280;66903;59.926;30.404;2023-04-24T09:26:46;100402.25;;;40.93;20.22
77737;BME280;66903;59.926;30.404;2023-04-24T09:31:47;100398.47;;;40.93;19.95
77737;BME280;66903;59.926;30.404;2023-04-24T09:36:47;100394.41;;;40.80;19.63
77737;BME280;66903;59.926;30.404;2023-04-24T09:41:50;100390.38;;;40.45;20.19
77737;BME280;66903;59.926;30.404;2023-04-24T09:46:54;100383.09;;;39.74;20.92
77737;BME280;66903;59.926;30.404;2023-04-24T09:52:09;100395.69;;;39.04;21.28
77737;BME280;66903;59.926;30.404;2023-04-24T09:57:10;100387.47;;;38.17;21.91
77737;BME280;66903;59.926;30.404;2023-04-24T10:02:17;100393.38;;;37.62;22.10
77737;BME280;66903;59.926;30.404;2023-04-24T10:07:19;100387.50;;;37.05;22.24
77737;BME280;66903;59.926;30.404;2023-04-24T10:12:19;100387.94;;;36.66;22.16
77737;BME280;66903;59.926;30.404;2023-04-24T10:17:21;100380.13;;;36.37;23.10
77737;BME280;66903;59.926;30.404;2023-04-24T10:22:23;100394.69;;;36.08;22.74
77737;BME280;66903;59.926;30.404;2023-04-24T10:27:26;100404.72;;;35.84;22.88
77737;BME280;66903;59.926;30.404;2023-04-24T10:32:27;100384.13;;;35.67;23.58
77737;BME280;66903;59.926;30.404;2023-04-24T10:37:27;100399.75;;;35.55;23.14
77737;BME280;66903;59.926;30.404;2023-04-24T10:42:29;100386.84;;;35.30;23.45
77737;BME280;66903;59.926;30.404;2023-04-24T10:47:30;100403.81;;;35.02;24.26
77737;BME280;66903;59.926;30.404;2023-04-24T10:52:48;100392.69;;;34.85;24.19
77737;BME280;66903;59.926;30.404;2023-04-24T10:58:04;100401.91;;;34.68;24.17
77737;BME280;66903;59.926;30.404;2023-04-24T11:03:07;100400.22;;;34.44;24.88
77737;BME280;66903;59.926;30.404;2023-04-24T11:13:21;100414.25;;;34.23;24.47
77737;BME280;66903;59.926;30.404;2023-04-24T11:18:22;100416.06;;;34.12;24.78
77737;BME280;66903;59.926;30.404;2023-04-24T11:23:23;100401.81;;;34.03;24.62
77737;BME280;66903;59.926;30.404;2023-04-24T11:28:24;100418.22;;;33.96;24.97
77737;BME280;66903;59.926;30.404;2023-04-24T11:33:24;100416.66;;;33.83;24.96
77737;BME280;66903;59.926;30.404;2023-04-24T11:38:25;100421.34;;;33.72;24.63
77737;BME280;66903;59.926;30.404;2023-04-24T11:43:26;100429.41;;;33.63;24.99
77737;BME280;66903;59.926;30.404;2023-04-24T11:48:28;100428.41;;;33.55;25.09
77737;BME280;66903;59.926;30.404;2023-04-24T11:53:30;100430.69;;;33.46;24.92
77737;BME280;66903;59.926;30.404;2023-04-24T11:58:40;100437.19;;;33.43;25.04
77737;BME280;66903;59.926;30.404;2023-04-24T12:03:40;100453.09;;;33.33;24.70
77737;BME280;66903;59.926;30.404;2023-04-24T12:08:47;100464.22;;;33.31;24.72
77737;BME280;66903;59.926;30.404;2023-04-24T12:13:48;100456.63;;;33.27;25.08
77737;BME280;66903;59.926;30.404;2023-04-24T12:18:51;100467.69;;;33.21;25.09
77737;BME280;66903;59.926;30.404;2023-04-24T12:23:54;100459.63;;;33.15;25.22
77737;BME280;66903;59.926;30.404;2023-04-24T12:29:01;100461.16;;;33.09;25.07
77737;BME280;66903;59.926;30.404;2023-04-24T12:34:03;100471.13;;;32.96;24.75
77737;BME280;66903;59.926;30.404;2023-04-24T12:39:16;100472.72;;;32.93;25.27
77737;BME280;66903;59.926;30.404;2023-04-24T12:44:17;100483.13;;;32.82;25.18
77737;BME280;66903;59.926;30.404;2023-04-24T12:49:18;100484.97;;;32.75;25.11
77737;BME280;66903;59.926;30.404;2023-04-24T12:54:19;100497.78;;;32.74;25.38
77737;BME280;66903;59.926;30.404;2023-04-24T12:59:19;100505.97;;;32.72;25.68
77737;BME280;66903;59.926;30.404;2023-04-24T13:04:20;100506.34;;;32.70;25.25
77737;BME280;66903;59.926;30.404;2023-04-24T13:09:21;100518.28;;;32.69;25.43
77737;BME280;66903;59.926;30.404;2023-04-24T13:14:22;100507.34;;;32.62;25.11
77737;BME280;66903;59.926;30.404;2023-04-24T13:19:26;100525.69;;;32.54;25.55
77737;BME280;66903;59.926;30.404;2023-04-24T13:24:27;100512.59;;;32.44;25.19
77737;BME280;66903;59.926;30.404;2023-04-24T13:29:28;100517.94;;;32.42;25.35
77737;BME280;66903;59.926;30.404;2023-04-24T13:34:29;100531.03;;;32.40;25.32
77737;BME280;66903;59.926;30.404;2023-04-24T13:39:30;100532.16;;;32.35;25.59
77737;BME280;66903;59.926;30.404;2023-04-24T13:44:31;100526.50;;;32.27;25.23
77737;BME280;66903;59.926;30.404;2023-04-24T13:49:32;100541.78;;;32.27;25.52
77737;BME280;66903;59.926;30.404;2023-04-24T13:54:32;100542.91;;;32.23;25.85
77737;BME280;66903;59.926;30.404;2023-04-24T13:59:33;100557.13;;;32.16;26.31
77737;BME280;66903;59.926;30.404;2023-04-24T14:04:33;100564.84;;;32.12;26.48
77737;BME280;66903;59.926;30.404;2023-04-24T14:09:34;100574.75;;;32.11;26.48
77737;BME280;66903;59.926;30.404;2023-04-24T14:14:34;100567.63;;;32.08;26.38
77737;BME280;66903;59.926;30.404;2023-04-24T14:19:35;100562.69;;;32.09;26.65
77737;BME280;66903;59.926;30.404;2023-04-24T14:24:35;100568.00;;;32.07;26.59
77737;BME280;66903;59.926;30.404;2023-04-24T14:29:36;100551.84;;;32.06;26.71
77737;BME280;66903;59.926;30.404;2023-04-24T14:34:37;100569.19;;;32.06;26.87
77737;BME280;66903;59.926;30.404;2023-04-24T14:39:37;100576.91;;;32.02;26.68
77737;BME280;66903;59.926;30.404;2023-04-24T14:44:38;100596.66;;;32.00;26.99
77737;BME280;66903;59.926;30.404;2023-04-24T14:49:39;100609.41;;;31.99;26.99
77737;BME280;66903;59.926;30.404;2023-04-24T14:54:39;100627.22;;;32.01;26.90
77737;BME280;66903;59.926;30.404;2023-04-24T14:59:40;100612.66;;;31.97;26.92
77737;BME280;66903;59.926;30.404;2023-04-24T15:04:40;100624.47;;;31.92;27.21
77737;BME280;66903;59.926;30.404;2023-04-24T15:09:41;100610.13;;;31.84;27.31
77737;BME280;66903;59.926;30.404;2023-04-24T15:14:43;100603.50;;;31.71;27.28
77737;BME280;66903;59.926;30.404;2023-04-24T15:19:43;100603.63;;;31.63;27.07
77737;BME280;66903;59.926;30.404;2023-04-24T15:24:44;100585.44;;;31.50;27.56
77737;BME280;66903;59.926;30.404;2023-04-24T15:29:44;100574.84;;;31.42;27.17
77737;BME280;66903;59.926;30.404;2023-04-24T15:34:45;100566.28;;;31.33;27.88
77737;BME280;66903;59.926;30.404;2023-04-24T15:39:45;100562.78;;;31.28;27.82
77737;BME280;66903;59.926;30.404;2023-04-24T15:44:46;100550.13;;;31.20;28.13
77737;BME280;66903;59.926;30.404;2023-04-24T15:49:47;100555.41;;;31.18;28.11
77737;BME280;66903;59.926;30.404;2023-04-24T15:54:47;100549.38;;;31.11;28.71
77737;BME280;66903;59.926;30.404;2023-04-24T15:59:48;100556.09;;;31.03;28.84
77737;BME280;66903;59.926;30.404;2023-04-24T16:04:49;100566.91;;;30.94;28.97
77737;BME280;66903;59.926;30.404;2023-04-24T16:09:50;100564.97;;;30.86;29.29
77737;BME280;66903;59.926;30.404;2023-04-24T16:14:50;100575.72;;;30.77;29.79
77737;BME280;66903;59.926;30.404;2023-04-24T16:19:51;100571.72;;;30.70;30.21
77737;BME280;66903;59.926;30.404;2023-04-24T16:24:51;100574.09;;;30.68;30.23
77737;BME280;66903;59.926;30.404;2023-04-24T16:29:52;100579.03;;;30.67;29.71
77737;BME280;66903;59.926;30.404;2023-04-24T16:34:53;100591.28;;;30.64;30.03
77737;BME280;66903;59.926;30.404;2023-04-24T16:39:54;100579.25;;;30.62;30.17
77737;BME280;66903;59.926;30.404;2023-04-24T16:44:55;100582.34;;;30.57;30.09
77737;BME280;66903;59.926;30.404;2023-04-24T16:49:55;100589.53;;;30.51;30.50
77737;BME280;66903;59.926;30.404;2023-04-24T16:54:57;100590.72;;;30.50;30.57
77737;BME280;66903;59.926;30.404;2023-04-24T16:59:57;100600.56;;;30.49;30.90
77737;BME280;66903;59.926;30.404;2023-04-24T17:04:58;100592.28;;;30.48;30.98
77737;BME280;66903;59.926;30.404;2023-04-24T17:09:58;100601.97;;;30.43;30.86
77737;BME280;66903;59.926;30.404;2023-04-24T17:14:59;100598.81;;;30.36;30.92
77737;BME280;66903;59.926;30.404;2023-04-24T17:20:00;100605.66;;;30.31;30.94
77737;BME280;66903;59.926;30.404;2023-04-24T17:25:00;100616.19;;;30.27;31.47
77737;BME280;66903;59.926;30.404;2023-04-24T17:30:01;100625.00;;;30.22;31.54
77737;BME280;66903;59.926;30.404;2023-04-24T17:35:02;100632.66;;;30.18;31.84
77737;BME280;66903;59.926;30.404;2023-04-24T17:40:03;100635.75;;;30.13;31.51
77737;BME280;66903;59.926;30.404;2023-04-24T17:45:03;100641.34;;;30.10;31.19
77737;BME280;66903;59.926;30.404;2023-04-24T17:50:04;100645.28;;;30.05;31.33
77737;BME280;66903;59.926;30.404;2023-04-24T17:55:05;100643.44;;;30.01;31.61
77737;BME280;66903;59.926;30.404;2023-04-24T18:00:06;100656.03;;;29.96;31.71
77737;BME280;66903;59.926;30.404;2023-04-24T18:05:08;100640.25;;;29.94;31.48
77737;BME280;66903;59.926;30.404;2023-04-24T18:10:08;100640.97;;;29.91;31.85
77737;BME280;66903;59.926;30.404;2023-04-24T18:15:09;100638.78;;;29.88;31.63
77737;BME280;66903;59.926;30.404;2023-04-24T18:20:12;100627.94;;;29.85;31.52
77737;BME280;66903;59.926;30.404;2023-04-24T18:25:13;100625.75;;;29.82;31.49
77737;BME280;66903;59.926;30.404;2023-04-24T18:30:14;100643.75;;;29.79;31.13
77737;BME280;66903;59.926;30.404;2023-04-24T18:35:15;100640.72;;;29.75;31.36
77737;BME280;66903;59.926;30.404;2023-04-24T18:40:16;100633.09;;;29.71;31.57
77737;BME280;66903;59.926;30.404;2023-04-24T18:45:17;100636.84;;;29.71;31.08
77737;BME280;66903;59.926;30.404;2023-04-24T18:50:17;100632.59;;;29.69;31.37
77737;BME280;66903;59.926;30.404;2023-04-24T18:55:18;100641.91;;;29.66;31.11
77737;BME280;66903;59.926;30.404;2023-04-24T19:00:19;100643.47;;;29.63;31.21
77737;BME280;66903;59.926;30.404;2023-04-24T19:05:20;100636.84;;;29.63;31.07
77737;BME280;66903;59.926;30.404;2023-04-24T19:10:20;100640.06;;;29.61;31.76
77737;BME280;66903;59.926;30.404;2023-04-24T19:15:24;100642.09;;;29.61;31.94
77737;BME280;66903;59.926;30.404;2023-04-24T19:20:25;100652.75;;;29.60;31.95
77737;BME280;66903;59.926;30.404;2023-04-24T19:25:26;100639.72;;;29.63;32.08
77737;BME280;66903;59.926;30.404;2023-04-24T19:30:26;100638.88;;;29.62;31.61
77737;BME280;66903;59.926;30.404;2023-04-24T19:35:27;100646.19;;;29.60;31.76
77737;BME280;66903;59.926;30.404;2023-04-24T19:40:27;100647.34;;;29.59;31.88
77737;BME280;66903;59.926;30.404;2023-04-24T19:45:28;100653.09;;;29.59;32.20
77737;BME280;66903;59.926;30.404;2023-04-24T19:50:29;100658.88;;;29.59;32.74
77737;BME280;66903;59.926;30.404;2023-04-24T19:55:30;100649.38;;;29.58;32.24
77737;BME280;66903;59.926;30.404;2023-04-24T20:00:31;100647.34;;;29.59;32.45
77737;BME280;66903;59.926;30.404;2023-04-24T20:05:31;100658.22;;;29.53;32.80
77737;BME280;66903;59.926;30.404;2023-04-24T20:10:32;100657.84;;;29.55;32.70
77737;BME280;66903;59.926;30.404;2023-04-24T20:15:32;100668.72;;;29.58;33.35
77737;BME280;66903;59.926;30.404;2023-04-24T20:20:33;100676.28;;;29.62;32.95
77737;BME280;66903;59.926;30.404;2023-04-24T20:25:37;100666.50;;;29.63;32.98
77737;BME280;66903;59.926;30.404;2023-04-24T20:30:38;100678.31;;;29.62;32.85
77737;BME280;66903;59.926;30.404;2023-04-24T20:35:38;100685.28;;;29.61;32.88
77737;BME280;66903;59.926;30.404;2023-04-24T20:40:39;100691.91;;;29.61;32.74
77737;BME280;66903;59.926;30.404;2023-04-24T20:45:39;100700.88;;;29.60;33.47
77737;BME280;66903;59.926;30.404;2023-04-24T20:50:40;100690.88;;;29.57;33.28
77737;BME280;66903;59.926;30.404;2023-04-24T20:55:42;100686.66;;;29.55;33.75
77737;BME280;66903;59.926;30.404;2023-04-24T21:00:42;100694.81;;;29.53;34.00
77737;BME280;66903;59.926;30.404;2023-04-24T21:05:44;100707.34;;;29.48;33.78
77737;BME280;66903;59.926;30.404;2023-04-24T21:10:45;100704.28;;;29.45;33.60
77737;BME280;66903;59.926;30.404;2023-04-24T21:15:45;100702.13;;;29.42;33.68
77737;BME280;66903;59.926;30.404;2023-04-24T21:20:46;100695.69;;;29.36;33.91
77737;BME280;66903;59.926;30.404;2023-04-24T21:25:46;100692.31;;;29.34;33.37
77737;BME280;66903;59.926;30.404;2023-04-24T21:30:47;100698.75;;;29.31;33.68
77737;BME280;66903;59.926;30.404;2023-04-24T21:35:47;100687.06;;;29.27;33.47
77737;BME280;66903;59.926;30.404;2023-04-24T21:40:48;100690.66;;;29.24;33.73
77737;BME280;66903;59.926;30.404;2023-04-24T21:45:49;100685.22;;;29.23;33.48
77737;BME280;66903;59.926;30.404;2023-04-24T21:50:51;100680.16;;;29.20;33.66
77737;BME280;66903;59.926;30.404;2023-04-24T21:55:52;100685.03;;;29.19;33.88
77737;BME280;66903;59.926;30.404;2023-04-24T22:00:52;100685.75;;;29.16;34.03
77737;BME280;66903;59.926;30.404;2023-04-24T22:05:53;100678.66;;;29.14;34.36
77737;BME280;66903;59.926;30.404;2023-04-24T22:10:53;100676.25;;;29.16;33.90
77737;BME280;66903;59.926;30.404;2023-04-24T22:15:54;100664.09;;;29.10;34.13
77737;BME280;66903;59.926;30.404;2023-04-24T22:20:55;100673.25;;;29.12;34.20
77737;BME280;66903;59.926;30.404;2023-04-24T22:25:56;100664.94;;;29.11;33.78
77737;BME280;66903;59.926;30.404;2023-04-24T22:30:56;100654.28;;;29.11;33.64
77737;BME280;66903;59.926;30.404;2023-04-24T22:35:57;100651.75;;;29.10;34.05
77737;BME280;66903;59.926;30.404;2023-04-24T22:40:58;100647.97;;;29.09;34.29
77737;BME280;66903;59.926;30.404;2023-04-24T22:45:58;100657.50;;;29.10;33.82
77737;BME280;66903;59.926;30.404;2023-04-24T22:50:59;100639.34;;;29.09;34.73
77737;BME280;66903;59.926;30.404;2023-04-24T22:56:00;100637.69;;;29.08;33.88
77737;BME280;66903;59.926;30.404;2023-04-24T23:01:00;100629.06;;;29.08;34.33
77737;BME280;66903;59.926;30.404;2023-04-24T23:06:01;100635.97;;;29.07;34.53
77737;BME280;66903;59.926;30.404;2023-04-24T23:11:01;100625.66;;;29.06;34.20
77737;BME280;66903;59.926;30.404;2023-04-24T23:16:02;100626.00;;;29.05;34.52
77737;BME280;66903;59.926;30.404;2023-04-24T23:21:04;100624.00;;;29.05;34.46
77737;BME280;66903;59.926;30.404;2023-04-24T23:26:04;100621.78;;;29.02;34.24
77737;BME280;66903;59.926;30.404;2023-04-24T23:31:05;100624.31;;;29.04;34.06
77737;BME280;66903;59.926;30.404;2023-04-24T23:36:06;100620.94;;;29.02;33.96
77737;BME280;66903;59.926;30.404;2023-04-24T23:41:06;100594.56;;;29.00;34.28
77737;BME280;66903;59.926;30.404;2023-04-24T23:46:06;100603.19;;;29.00;34.18
77737;BME280;66903;59.926;30.404;2023-04-24T23:51:07;100598.94;;;28.97;34.42
77737;BME280;66903;59.926;30.404;2023-04-24T23:56:08;100605.91;;;28.96;33.91
